Woodbury, Texas
Current Conditions -  °F | °C
As of 11:55 AM on Thursday 23 Oct 2014 (Local Time) from KINJ Reporting Station
Overcast Overcast  
Wind Chill: 22°   Ceiling: 8000
Heat Index: 22°   Visibility: 10mi
Dew Point: 13°   Wind: 7mph
Humidity: 54%   Direction: 190°S
Pressure: 30.17"   Gusts: NA
Location:  32.0499°N, 97.1039°W
Report Text: KINJ 231655Z AUTO 19006KT 10SM OVC080 22/13 A3017 RMK AO2 T02230127
Loading
Personal Weather Stations






























Interactive Weather Map
Tropical Storm Tracking
New forecast layout! Learn more

10-Day Weather Forecast

Advertisements
Track Severe Weather on mobile